West Ocean City, Maryland
Current Conditions -  °F | °C
As of 8:01 AM on Wednesday 26 Nov 2014 (Local Time) from KOXB Reporting Station
Moderate Rain Moderate Rain  
Wind Chill: 38°   Ceiling: 2500
Heat Index: 46°   Visibility: 3mi
Dew Point: 44°   Wind: 20mph
Humidity: 93%   Direction: 60°ENE
Pressure: 29.98"   Gusts: 30mph
Location:  38.3984°N, 75.0667°W
Report Text: KOXB 261301Z AUTO 06017G26KT 3SM RA BR FEW009 SCT018 OVC025 08/07 A2998 RMK AO2 PK WND 05026/1300 P0001 T00780067 TSNO
Loading
Personal Weather Stations






























Interactive Weather Map New forecast layout! Learn more

10-Day Weather Forecast

Advertisements
Track Severe Weather on mobile